• Join FlightAware (Why Join?)
  • Login
  • US Flag 
10:38PM EDT


 

Airport Tracker/Info


-or-


 

Live Flight TrackerFlight Track Log ✈ TCF3494 ✈ 08-Jun-2013 ✈ KORD - KLGA

Flight Track Log - Related Links

Times and Time Zones

All times are in EDT time to prevent confusion due to time zone crossing. See the TCF3494 flight status page for this flight to view local times or setup timezone preferences in your user account.

Time Position Orientation Groundspeed Altitude Reporting Facility
EDT Latitude Longitude Course Direction KTS MPH feet Rate Location/Type
09:29PM 41.9833 -87.8500 90° East 164 189 2,500  Level Chicago TRACON
09:29PM 41.9822 -87.7986 92° East 202 232 4,100 2,220 Climbing Chicago Center
09:31PM 41.9428 -87.2646 95° East  Level FlightAware Approximate
09:31PM 41.9767 -87.6975 94° East 256 295 6,700  Level Chicago Center
09:32PM 41.9333 -87.1059 90° East  Level FlightAware Approximate
09:32PM 41.9717 -87.5844 93° East 295 339 10,500  Level Chicago Center
09:33PM 41.9333 -86.9466 90° East  Level FlightAware Approximate
09:33PM 41.9664 -87.4667 93° East 314 361 13,400  Level Chicago Center
09:34PM 41.9333 -86.7873 90° East  Level FlightAware Approximate
09:34PM 41.9594 -87.3331 94° East 365 420 15,900  Level Chicago Center
09:35PM 41.9511 -87.1900 94° East 384 442 18,300 2,400 Climbing Chicago Center
09:36PM 41.9450 -87.0389 93° East 406 467 20,900 2,280 Climbing Chicago Center
09:37PM 41.9481 -86.8792 88° East 429 494 23,000 2,280 Climbing Chicago Center
09:38PM 41.9506 -86.6839 89° East 442 509 25,600 2,160 Climbing Chicago Center
09:39PM 41.9517 -86.5106 89° East 459 528 27,400 1,620 Climbing Chicago Center
09:40PM 41.9547 -86.3358 89° East 466 536 29,000 1,500 Climbing Chicago Center
09:41PM 41.9517 -86.1572 91° East 475 547 30,500 1,320 Climbing Chicago Center
09:42PM 41.9336 -85.9778 98° East 482 555 31,800 1,440 Climbing Chicago Center
09:43PM 41.9164 -85.7989 97° East 484 557 33,500 1,560 Climbing Chicago Center
09:44PM 41.9003 -85.6225 97° East 476 548 35,000 720 Climbing Chicago Center
09:45PM 41.8836 -85.4400 97° East 486 559 35,000  Level Chicago Center
09:47PM 41.8458 -85.0658 98° East 501 577 35,000  Level Chicago Center
09:48PM 41.8269 -84.8803 98° East 504 580 35,000  Level Chicago Center
09:49PM 41.8072 -84.6967 98° East 501 577 35,000  Level Chicago Center
09:50PM 41.7886 -84.5158 98° East 491 565 35,000  Level Chicago Center
09:51PM 41.7772 -84.3333 95° East 492 566 35,000  Level Chicago Center
09:52PM 41.7769 -84.1489 90° East 496 571 35,000  Level Chicago Center
09:53PM 41.7722 -83.9050 91° East 491 565 35,000  Level Cleveland Center
09:54PM 41.7711 -83.7183 90° East 497 572 35,000  Level Cleveland Center
09:55PM 41.7656 -83.5342 92° East 497 572 35,000  Level Cleveland Center
09:56PM 41.7494 -83.3497 97° East 497 572 35,000  Level Cleveland Center
09:57PM 41.7344 -83.1822 97° East 502 578 35,000  Level Cleveland Center
09:58PM 41.7136 -83.0006 99° East 502 578 35,000  Level Cleveland Center
09:59PM 41.6942 -82.8161 98° East 502 578 35,000  Level Cleveland Center
10:00PM 41.6792 -82.6239 96° East 507 583 35,000  Level Cleveland Center
10:01PM 41.6572 -82.4397 99° East 507 583 35,000  Level Cleveland Center
10:02PM 41.6375 -82.2392 97° East 501 577 35,000  Level Cleveland Center
10:03PM 41.6169 -82.0553 98° East 506 582 35,000  Level Cleveland Center
10:04PM 41.5983 -81.8686 98° East 506 582 35,000  Level Cleveland Center
10:05PM 41.5772 -81.6850 99° East 506 582 35,000  Level Cleveland Center
10:06PM 41.5561 -81.5044 99° East 506 582 35,000  Level Cleveland Center
10:07PM 41.5383 -81.3433 98° East 506 582 35,000  Level Cleveland Center
10:08PM 41.5167 -81.1656 99° East 489 563 35,000  Level Cleveland Center
10:09PM 41.5006 -80.9825 97° East 483 556 35,000  Level Cleveland Center
10:10PM 41.4844 -80.8047 97° East 483 556 35,000  Level Cleveland Center
10:11PM 41.4681 -80.6303 97° East 483 556 35,000  Level Cleveland Center
10:12PM 41.4492 -80.4336 97° East 483 556 35,000  Level Cleveland Center
10:13PM 41.4383 -80.2731 95° East 483 556 35,000  Level Cleveland Center
10:14PM 41.4211 -80.0931 97° East 483 556 35,000  Level Cleveland Center
10:15PM 41.3992 -79.8967 98° East 478 550 35,000  Level Cleveland Center
10:16PM 41.3814 -79.7197 98° East 483 556 35,000  Level Cleveland Center
10:17PM 41.3675 -79.5594 97° East 483 556 35,000 -1,020 Level Cleveland Center
10:18PM 41.3492 -79.3772 98° East 483 556 33,000  Descending Cleveland Center
10:19PM 41.3281 -79.1783 98° East 483 556 35,000 960 Climbing Cleveland Center
10:20PM 41.3092 -79.0019 98° East 483 556 35,000  Level Cleveland Center
10:21PM 41.2944 -78.8419 97° East 483 556 35,000  Level Cleveland Center
10:23PM 41.2622 -78.5497 98° East 473 544 35,000  Level New York Center
10:24PM 41.2439 -78.3847 98° East 481 554 35,000 -720 Level New York Center
10:25PM 41.2239 -78.2086 99° East 486 559 33,600 -1,020 Descending New York Center
10:26PM 41.1994 -78.0292 100° East 486 559 33,000 -300 Descending New York Center
10:27PM 41.1769 -77.8503 99° East 486 559 33,000  Level New York Center
10:28PM 41.1539 -77.6742 100° East 486 559 33,000  Level New York Center
10:29PM 41.1289 -77.4953 100° East 486 559 33,000  Level New York Center
10:30PM 41.0936 -77.3072 104° East 486 559 33,000 -600 Level New York Center
10:31PM 41.0614 -77.1336 104° East 486 559 31,800 -1,740 Descending New York Center
10:32PM 41.0267 -76.9597 105° East 486 559 29,600 -2,160 Descending New York Center
10:33PM 40.9942 -76.7808 103° East 486 559 27,500 -2,160 Descending New York Center
10:34PM 40.9628 -76.6214 105° East 474 545 25,400 -2,040 Descending New York Center
10:35PM 40.9311 -76.4539 104° East 468 539 23,400 -1,980 Descending New York Center
10:36PM 40.8972 -76.2917 105° East 468 539 21,400 -1,980 Descending New York Center
10:37PM 40.8689 -76.1358 103° East 458 527 19,500 -1,980 Descending New York Center
10:38PM 40.8403 -75.9853 104° East 435 501 17,600 -1,920 Descending New York Center
10:39PM 40.8111 -75.8406 105° East 418 481 15,800 -1,740 Descending New York Center
10:40PM 40.7872 -75.7153 104° East 405 466 14,100 -1,440 Descending New York Center
10:41PM 40.7556 -75.5761 107° East 400 460 13,000 -600 Descending New York Center
10:42PM 40.7253 -75.4453 107° East 385 443 13,000  Level New York Center
10:43PM 40.6953 -75.3064 106° East 385 443 13,000 -300 Level New York Center
10:44PM 40.6711 -75.1733 103° East 385 443 12,400 -1,260 Descending New York Center
10:45PM 40.6006 -75.0569 129° Southeast 370 426 10,500 -1,200 Descending New York Center
10:46PM 40.5483 -74.9444 121° Southeast 364 419 10,000 -360 Descending New York Center
10:46PM 40.5333 -74.8667 104° East 372 428 10,000  Level New York TRACON
10:47PM 40.5000 -74.7500 111° Southeast 329 379 10,000 -540 Level New York TRACON
10:48PM 40.4667 -74.6500 114° Southeast 317 365 9,000 -540 Descending New York TRACON
10:49PM 40.4333 -74.5500 114° Southeast 317 365 9,000 -180 Level New York TRACON
10:50PM 40.4667 -74.4167 72° East 317 365 8,700 -480 Descending New York TRACON
10:51PM 40.4833 -74.3167 78° East 308 354 8,000 -420 Descending New York TRACON
10:52PM 40.5167 -74.2167 66° East 311 358 8,000 -780 Level New York TRACON
10:53PM 40.5500 -74.1167 66° East 306 352 6,600 -1,080 Descending New York TRACON
10:54PM 40.5833 -74.0333 62° Northeast 295 339 6,000 -900 Descending New York TRACON
10:55PM 40.6500 -73.9833 30° Northeast 279 321 5,000 -480 Descending New York TRACON
10:56PM 40.7000 -73.9000 52° Northeast 241 277 5,000 -480 Level New York TRACON
10:57PM 40.7333 -73.8333 57° Northeast 240 276 4,000 -540 Descending New York TRACON
10:58PM 40.7667 -73.7833 49° Northeast 228 262 4,000 -480 Level New York TRACON
10:59PM 40.8167 -73.7500 27° Northeast 199 229 3,100 -540 Descending New York TRACON
11:00PM 40.8667 -73.7167 27° Northeast 200 230 3,000 -360 Descending New York TRACON
11:01PM 40.9000 -73.7333 339° North 191 220 2,500 -480 Descending New York TRACON
11:02PM 40.8833 -73.7833 246° West 180 207 2,000 -480 Descending New York TRACON